createdAt,value
2023-02-22T00:00:51.313Z,2.47
2023-02-22T00:01:51.731Z,2.91
2023-02-22T00:02:51.384Z,3.06
2023-02-22T00:03:51.275Z,2.56
2023-02-22T00:04:51.275Z,2.78
2023-02-22T00:54:52.737Z,6.97
2023-02-22T00:55:54.497Z,3.52
2023-02-22T00:56:53.750Z,2.88
2023-02-22T00:59:53.729Z,2.59
2023-02-22T01:00:53.743Z,3.06
2023-02-22T01:01:53.835Z,2.66
2023-02-22T01:02:54.474Z,2.77
2023-02-22T01:03:53.700Z,2.92
2023-02-22T01:04:53.685Z,2.89
2023-02-22T01:05:53.665Z,3.00
2023-02-22T01:06:53.657Z,2.98
2023-02-22T01:07:53.654Z,3.15
2023-02-22T01:08:53.645Z,2.87
2023-02-22T01:09:53.663Z,3.08
2023-02-22T01:10:53.652Z,2.56
2023-02-22T01:14:53.585Z,2.54
2023-02-22T01:15:53.581Z,3.05
2023-02-22T01:16:53.682Z,3.33
2023-02-22T01:17:53.714Z,2.58
2023-02-22T01:18:53.551Z,2.55
2023-02-22T01:19:54.057Z,2.44
2023-02-22T01:20:53.526Z,2.73
2023-02-22T01:21:53.516Z,2.80
2023-02-22T01:23:53.501Z,2.73
2023-02-22T01:25:53.480Z,2.88
2023-02-22T01:26:53.497Z,2.94
2023-02-22T01:27:53.474Z,3.08
2023-02-22T01:28:53.457Z,2.75
2023-02-22T01:29:53.443Z,2.94
2023-02-22T01:30:53.523Z,2.50
2023-02-22T01:31:53.447Z,2.42
2023-02-22T01:32:53.484Z,2.75
2023-02-22T01:33:53.407Z,2.53
2023-02-22T01:35:53.390Z,3.07
2023-02-22T01:36:53.395Z,2.75
2023-02-22T01:37:53.367Z,2.70
2023-02-22T01:38:53.361Z,2.52
2023-02-22T01:39:53.347Z,2.71
2023-02-22T01:40:53.339Z,2.86
2023-02-22T01:41:53.342Z,2.67
2023-02-22T01:42:53.350Z,3.04
2023-02-22T01:46:53.288Z,2.68
2023-02-22T01:58:53.216Z,2.44
2023-02-22T05:03:51.491Z,3.31
2023-02-22T05:04:51.557Z,3.23
2023-02-22T05:05:51.463Z,3.09
2023-02-22T05:06:53.427Z,3.03
2023-02-22T05:07:51.445Z,2.48
2023-02-22T05:08:51.441Z,2.67
2023-02-22T05:09:51.432Z,2.53
2023-02-22T05:10:51.438Z,2.67
2023-02-22T05:11:51.415Z,3.24
2023-02-22T05:12:51.427Z,2.57
2023-02-22T05:13:51.409Z,2.78
2023-02-22T05:14:51.379Z,2.95
2023-02-22T05:15:51.401Z,2.52
2023-02-22T05:16:51.357Z,2.71
2023-02-22T05:17:51.405Z,2.81
2023-02-22T05:20:51.337Z,3.45
2023-02-22T05:21:51.322Z,2.93
2023-02-22T05:22:51.308Z,2.81
2023-02-22T05:23:51.298Z,3.19
2023-02-22T05:24:51.285Z,3.07
2023-02-22T05:25:52.069Z,2.52
2023-02-22T05:26:51.415Z,3.03
2023-02-22T05:27:51.270Z,2.75
2023-02-22T05:28:51.289Z,2.66
2023-02-22T05:29:51.267Z,2.51
2023-02-22T05:30:51.254Z,2.68
2023-02-22T05:31:51.406Z,3.03
2023-02-22T05:32:51.276Z,2.70
2023-02-22T05:33:51.208Z,2.93
2023-02-22T05:34:51.198Z,3.12
2023-02-22T05:35:51.188Z,3.19
2023-02-22T05:36:51.179Z,3.29
2023-02-22T05:37:51.169Z,2.94
2023-02-22T05:38:51.171Z,2.52
2023-02-22T05:39:51.147Z,2.86
2023-02-22T05:40:51.144Z,2.73
2023-02-22T05:41:51.141Z,2.87
2023-02-22T05:42:51.170Z,2.53
2023-02-22T05:43:51.121Z,2.86
2023-02-22T05:44:51.102Z,3.26
2023-02-22T05:45:51.097Z,2.97
2023-02-22T05:46:51.208Z,2.98
2023-02-22T05:47:51.092Z,3.11
2023-02-22T05:48:51.070Z,2.86
2023-02-22T05:49:51.061Z,3.17
2023-02-22T05:50:51.057Z,2.56
2023-02-22T05:51:51.044Z,3.16
2023-02-22T05:52:51.089Z,3.22
2023-02-22T05:53:51.024Z,2.91
2023-02-22T05:55:51.004Z,2.68
2023-02-22T05:56:50.990Z,2.97
2023-02-22T05:57:50.986Z,2.78
2023-02-22T05:58:51.006Z,3.00
2023-02-22T05:59:50.966Z,2.87
2023-02-22T06:00:50.952Z,3.05
2023-02-22T06:01:50.967Z,2.58
2023-02-22T06:02:50.937Z,2.97
2023-02-22T06:03:50.931Z,3.08
2023-02-22T06:04:50.919Z,3.15
2023-02-22T06:05:50.972Z,3.03
2023-02-22T06:06:51.594Z,2.81
2023-02-22T06:07:50.901Z,3.43
2023-02-22T06:08:50.885Z,2.88
2023-02-22T06:09:50.871Z,2.90
2023-02-22T06:10:50.879Z,2.92
2023-02-22T06:11:51.211Z,2.84
2023-02-22T06:12:50.843Z,2.98
2023-02-22T06:13:53.628Z,3.16
2023-02-22T06:14:50.822Z,2.87
2023-02-22T06:15:50.812Z,2.36
2023-02-22T06:16:50.802Z,2.65
2023-02-22T06:17:51.086Z,2.79
2023-02-22T06:18:51.230Z,3.01
2023-02-22T06:19:50.777Z,2.48
2023-02-22T06:20:50.784Z,3.37
2023-02-22T06:21:50.759Z,2.60
2023-02-22T06:22:51.348Z,3.04
2023-02-22T06:24:50.730Z,2.84
2023-02-22T06:26:50.750Z,2.84
2023-02-22T06:27:51.087Z,2.50
2023-02-22T06:28:50.696Z,2.92
2023-02-22T06:29:50.711Z,2.92
2023-02-22T06:30:50.705Z,2.98
2023-02-22T06:31:50.811Z,3.17
2023-02-22T06:32:50.672Z,2.86
2023-02-22T06:33:51.104Z,3.20
2023-02-22T06:34:51.589Z,2.82
2023-02-22T06:35:50.630Z,2.51
2023-02-22T06:36:50.639Z,3.20
2023-02-22T06:37:50.615Z,2.65
2023-02-22T06:38:51.094Z,2.80
2023-02-22T06:39:50.598Z,3.33
2023-02-22T06:40:50.626Z,3.14
2023-02-22T06:41:50.628Z,3.08
2023-02-22T06:42:53.096Z,2.69
2023-02-22T06:43:50.636Z,2.66
2023-02-22T06:44:51.781Z,3.06
2023-02-22T06:45:50.602Z,3.07
2023-02-22T06:46:50.602Z,2.80
2023-02-22T06:47:50.687Z,2.61
2023-02-22T06:48:50.590Z,2.68
2023-02-22T06:49:50.505Z,2.62
2023-02-22T06:50:50.498Z,2.85
2023-02-22T06:51:50.486Z,2.60
2023-02-22T06:52:50.477Z,2.46
2023-02-22T06:53:50.612Z,2.88
2023-02-22T06:54:50.469Z,3.05
2023-02-22T06:55:50.450Z,2.39
2023-02-22T06:56:50.459Z,3.05
2023-02-22T06:57:51.103Z,2.88
2023-02-22T06:58:50.607Z,3.12
2023-02-22T06:59:50.436Z,3.04
2023-02-22T07:00:50.470Z,2.93
2023-02-22T07:02:50.436Z,3.51
2023-02-22T07:05:50.393Z,2.98
2023-02-22T07:06:50.358Z,2.84
2023-02-22T07:07:50.351Z,2.94
2023-02-22T07:08:50.609Z,3.28
2023-02-22T07:09:50.342Z,2.88
2023-02-22T07:10:50.332Z,2.52
2023-02-22T07:11:50.608Z,3.27
2023-02-22T07:12:50.299Z,3.21
2023-02-22T07:13:50.628Z,3.21
2023-02-22T07:14:50.292Z,2.73
2023-02-22T07:15:50.284Z,3.26
2023-02-22T07:16:50.266Z,3.09
2023-02-22T07:17:50.272Z,2.85
2023-02-22T07:18:50.271Z,2.57
2023-02-22T07:19:50.619Z,2.78
2023-02-22T07:20:51.142Z,2.88
2023-02-22T07:21:50.232Z,3.33
2023-02-22T07:22:50.209Z,2.85
2023-02-22T07:23:50.610Z,2.90
2023-02-22T07:24:50.188Z,2.99
2023-02-22T07:25:50.176Z,3.10
2023-02-22T07:26:50.165Z,2.97
2023-02-22T07:27:50.165Z,3.07
2023-02-22T07:28:50.624Z,3.23
2023-02-22T07:29:50.161Z,3.27
2023-02-22T07:30:50.613Z,2.95
2023-02-22T07:31:50.211Z,2.81
2023-02-22T07:32:51.146Z,2.87
2023-02-22T07:33:50.117Z,2.89
2023-02-22T07:34:50.636Z,2.96
2023-02-22T07:35:50.087Z,2.77
2023-02-22T07:36:50.081Z,2.98
2023-02-22T07:37:50.206Z,3.27
2023-02-22T07:38:50.059Z,3.29
2023-02-22T07:39:50.618Z,3.02
2023-02-22T07:40:50.069Z,2.75
2023-02-22T07:41:50.049Z,2.49
2023-02-22T07:42:50.023Z,3.36
2023-02-22T07:43:52.615Z,3.57
2023-02-22T07:44:50.118Z,2.91
2023-02-22T07:45:51.112Z,2.75
2023-02-22T07:46:50.021Z,2.74
2023-02-22T07:47:50.012Z,3.16
2023-02-22T07:48:50.973Z,2.88
2023-02-22T07:49:50.120Z,3.20
2023-02-22T07:50:50.653Z,3.05
2023-02-22T07:51:49.982Z,2.67
2023-02-22T07:53:21.738Z,3.04
2023-02-22T07:53:52.631Z,3.22
2023-02-22T07:54:50.130Z,2.63
2023-02-22T07:55:49.928Z,2.85
2023-02-22T07:56:52.619Z,3.01
2023-02-22T07:57:50.160Z,3.47
2023-02-22T07:58:52.617Z,3.20
2023-02-22T07:59:49.895Z,3.26
2023-02-22T08:00:49.867Z,3.34
2023-02-22T08:02:49.862Z,3.25
2023-02-22T08:03:49.890Z,3.26
2023-02-22T08:04:50.129Z,3.32
2023-02-22T08:05:49.818Z,2.93
2023-02-22T08:06:49.846Z,2.85
2023-02-22T08:07:49.798Z,2.73
2023-02-22T08:08:50.635Z,3.23
2023-02-22T08:09:52.628Z,3.52
2023-02-22T08:10:50.637Z,3.28
2023-02-22T08:11:49.771Z,3.23
2023-02-22T08:12:50.129Z,3.29
2023-02-22T08:13:49.750Z,3.61
2023-02-22T08:14:49.738Z,3.69
2023-02-22T08:16:49.778Z,3.60
2023-02-22T08:17:50.366Z,5.28
2023-02-22T08:18:49.702Z,5.40
2023-02-22T08:19:49.688Z,5.59
2023-02-22T08:20:50.634Z,6.16
2023-02-22T08:21:49.684Z,6.36
2023-02-22T08:22:49.701Z,7.22
2023-02-22T08:23:52.629Z,7.72
2023-02-22T08:24:52.627Z,8.34
2023-02-22T08:25:50.137Z,8.91
2023-02-22T08:26:50.038Z,8.36
2023-02-22T08:27:49.629Z,8.66
2023-02-22T08:28:49.605Z,9.10
2023-02-22T08:29:49.604Z,9.62
2023-02-22T08:30:49.815Z,9.38
2023-02-22T08:32:49.831Z,10.36
2023-02-22T08:35:49.898Z,11.51
2023-02-22T08:37:04.197Z,11.24
2023-02-22T08:37:49.644Z,9.97
2023-02-22T08:40:49.670Z,9.63
2023-02-22T08:45:49.689Z,10.00
2023-02-22T08:46:50.135Z,9.96
2023-02-22T08:49:49.656Z,9.81
2023-02-22T08:50:49.673Z,11.44
2023-02-22T08:52:50.391Z,12.06
2023-02-22T08:54:50.391Z,9.87
2023-02-22T08:56:49.645Z,7.95
2023-02-22T08:58:50.001Z,7.42
2023-02-22T09:00:50.392Z,5.73
2023-02-22T09:05:49.708Z,7.49
2023-02-22T09:15:49.658Z,8.00
2023-02-22T09:21:49.644Z,6.44
2023-02-22T09:23:49.641Z,6.08
2023-02-22T09:26:49.671Z,5.30
2023-02-22T09:28:49.680Z,4.96
2023-02-22T09:38:51.648Z,4.65
2023-02-22T09:50:49.655Z,6.08
2023-02-22T10:03:51.718Z,5.73
2023-02-22T10:04:49.657Z,5.29
2023-02-22T10:06:49.664Z,5.05
2023-02-22T10:10:49.663Z,4.89
2023-02-22T10:11:49.682Z,4.86
2023-02-22T10:54:44.839Z,3.25
2023-02-22T10:55:45.962Z,2.86
2023-02-22T10:56:45.897Z,2.58
2023-02-22T10:57:45.960Z,2.70
2023-02-22T10:58:45.867Z,2.42
2023-02-22T10:59:45.858Z,2.78
2023-02-22T11:00:46.739Z,2.75
2023-02-22T11:02:45.853Z,2.69
2023-02-22T11:03:45.829Z,2.82
2023-02-22T11:04:45.861Z,2.69
2023-02-22T11:05:45.797Z,2.73
2023-02-22T11:06:45.795Z,2.57
2023-02-22T11:07:45.800Z,2.78
2023-02-22T11:08:45.762Z,2.96
2023-02-22T11:09:45.758Z,3.93
2023-02-22T11:11:46.038Z,4.38
2023-02-22T11:12:45.733Z,4.85
2023-02-22T11:13:45.716Z,5.16
2023-02-22T11:14:45.973Z,4.57
2023-02-22T11:15:45.699Z,5.02
2023-02-22T11:16:45.736Z,5.05
2023-02-22T11:17:45.675Z,4.32
2023-02-22T11:18:45.704Z,4.29
2023-02-22T11:19:46.029Z,5.95
2023-02-22T11:20:45.650Z,5.52
2023-02-22T11:21:45.647Z,4.57
2023-02-22T11:23:45.963Z,3.70
2023-02-22T11:24:49.328Z,3.36
2023-02-22T11:25:45.608Z,3.80
2023-02-22T11:26:45.615Z,4.09
2023-02-22T11:27:45.589Z,3.14
2023-02-22T11:28:45.969Z,3.14
2023-02-22T11:29:45.567Z,2.87
2023-02-22T11:30:46.407Z,3.14
2023-02-22T11:31:45.692Z,2.90
2023-02-22T11:32:45.535Z,2.83
2023-02-22T11:33:45.968Z,3.16
2023-02-22T11:34:45.576Z,3.13
2023-02-22T11:35:45.532Z,3.14
2023-02-22T11:37:45.516Z,2.70
2023-02-22T11:38:45.498Z,3.29
2023-02-22T11:39:45.524Z,2.72
2023-02-22T11:40:45.495Z,2.69
2023-02-22T11:41:45.462Z,2.41
2023-02-22T11:42:45.461Z,2.58
2023-02-22T11:43:45.453Z,2.60
2023-02-22T11:44:45.432Z,3.18
2023-02-22T11:45:57.777Z,2.80
2023-02-22T11:46:46.107Z,3.05
2023-02-22T11:47:45.427Z,2.95
2023-02-22T11:48:45.391Z,3.05
2023-02-22T11:49:45.371Z,3.39
2023-02-22T11:50:45.389Z,3.79
2023-02-22T11:51:45.389Z,3.68
2023-02-22T11:52:45.375Z,3.26
2023-02-22T11:53:45.354Z,3.03
2023-02-22T11:54:45.327Z,3.02
2023-02-22T11:55:45.470Z,2.57
2023-02-22T11:56:45.352Z,2.70
2023-02-22T11:57:45.297Z,2.66
2023-02-22T11:58:45.284Z,2.66
2023-02-22T11:59:45.291Z,2.70
2023-02-22T12:00:45.271Z,2.58
2023-02-22T12:01:45.254Z,3.19
2023-02-22T12:02:56.365Z,3.07
2023-02-22T12:03:45.354Z,2.32
2023-02-22T12:04:45.345Z,2.83
2023-02-22T12:05:45.225Z,2.56
2023-02-22T12:06:45.229Z,2.53
2023-02-22T12:07:45.200Z,3.17
2023-02-22T12:08:45.510Z,2.53
2023-02-22T12:09:45.177Z,2.63
2023-02-22T12:10:45.173Z,2.61
2023-02-22T12:12:45.477Z,2.89
2023-02-22T12:13:45.147Z,2.64
2023-02-22T12:14:45.502Z,2.46
2023-02-22T12:15:45.158Z,2.42
2023-02-22T12:16:45.110Z,3.11
2023-02-22T12:17:54.296Z,2.69
2023-02-22T12:18:45.096Z,2.38
2023-02-22T12:19:45.088Z,2.95
2023-02-22T12:20:45.076Z,2.41
2023-02-22T12:21:45.072Z,2.59
2023-02-22T12:22:45.081Z,2.83
2023-02-22T12:23:45.107Z,2.62
2023-02-22T12:24:45.038Z,2.56
2023-02-22T12:25:45.089Z,2.57
2023-02-22T12:26:45.018Z,2.51
2023-02-22T12:27:45.013Z,2.61
2023-02-22T12:28:45.041Z,2.76
2023-02-22T12:29:44.999Z,2.81
2023-02-22T12:30:45.105Z,2.12
2023-02-22T12:31:45.154Z,2.85
2023-02-22T12:32:44.978Z,2.69
2023-02-22T12:33:45.035Z,2.56
2023-02-22T12:34:45.016Z,2.46
2023-02-22T12:35:44.938Z,2.66
2023-02-22T12:36:44.929Z,2.23
2023-02-22T12:37:45.494Z,2.30
2023-02-22T12:38:45.016Z,1.85
2023-02-22T12:39:53.101Z,2.41
2023-02-22T12:40:44.900Z,2.54
2023-02-22T12:41:44.902Z,2.42
2023-02-22T12:42:44.879Z,2.64
2023-02-22T12:43:45.013Z,2.90
2023-02-22T12:44:44.858Z,2.99
2023-02-22T12:45:44.857Z,2.60
2023-02-22T12:46:44.882Z,3.18
2023-02-22T12:47:44.836Z,2.58
2023-02-22T12:48:44.830Z,2.65
2023-02-22T12:49:44.821Z,2.77
2023-02-22T12:50:44.797Z,2.59
2023-02-22T12:51:44.801Z,2.69
2023-02-22T12:52:44.787Z,2.97
2023-02-22T12:53:44.773Z,2.66
2023-02-22T12:54:44.794Z,2.40
2023-02-22T12:55:44.752Z,2.37
2023-02-22T12:56:44.755Z,2.22
2023-02-22T12:58:44.728Z,3.27
2023-02-22T12:59:44.720Z,2.67
2023-02-22T13:00:45.018Z,2.52
2023-02-22T13:01:44.747Z,3.49
2023-02-22T13:02:44.688Z,2.39
2023-02-22T13:03:44.685Z,3.28
2023-02-22T13:04:45.015Z,2.83
2023-02-22T13:05:44.665Z,3.05
2023-02-22T13:07:44.642Z,2.65
2023-02-22T13:08:44.642Z,2.40
2023-02-22T13:09:44.661Z,2.85
2023-02-22T13:10:44.764Z,3.18
2023-02-22T13:11:44.605Z,2.58
2023-02-22T13:12:44.600Z,3.03
2023-02-22T13:13:44.599Z,2.80
2023-02-22T13:14:44.577Z,2.53
2023-02-22T13:15:44.599Z,4.61
2023-02-22T13:16:44.567Z,5.34
2023-02-22T13:17:44.544Z,4.72
2023-02-22T13:18:44.546Z,4.87
2023-02-22T13:19:59.507Z,5.53
2023-02-22T13:20:59.537Z,4.83
2023-02-22T13:21:44.511Z,5.92
2023-02-22T13:22:44.497Z,5.34
2023-02-22T13:23:44.529Z,5.85
2023-02-22T13:24:45.003Z,5.90
2023-02-22T13:25:44.468Z,5.13
2023-02-22T13:26:44.488Z,5.48
2023-02-22T13:27:44.457Z,6.22
2023-02-22T13:28:44.442Z,4.99
2023-02-22T13:29:44.429Z,5.94
2023-02-22T13:30:44.481Z,5.51
2023-02-22T13:31:44.431Z,4.97
2023-02-22T13:32:44.408Z,5.67
2023-02-22T13:33:44.394Z,5.07
2023-02-22T13:34:44.387Z,5.30
2023-02-22T13:35:44.384Z,5.26
2023-02-22T13:36:44.368Z,4.90
2023-02-22T13:37:44.350Z,4.57
2023-02-22T13:38:44.347Z,5.12
2023-02-22T13:39:44.336Z,4.41
2023-02-22T13:40:44.327Z,4.95
2023-02-22T13:41:44.317Z,4.45
2023-02-22T13:42:44.333Z,4.78
2023-02-22T13:43:44.307Z,4.68
2023-02-22T13:44:44.287Z,4.73
2023-02-22T13:45:43.295Z,4.20
2023-02-22T13:46:44.352Z,4.12
2023-02-22T13:47:44.258Z,4.90
2023-02-22T13:48:44.250Z,4.37
2023-02-22T13:49:44.242Z,4.54
2023-02-22T13:50:44.229Z,4.00
2023-02-22T13:51:44.224Z,4.44
2023-02-22T13:52:44.203Z,4.82
2023-02-22T13:53:44.523Z,4.11
2023-02-22T13:54:44.190Z,4.66
2023-02-22T13:55:44.192Z,3.97
2023-02-22T13:56:44.171Z,4.07
2023-02-22T13:57:44.164Z,4.44
2023-02-22T13:58:44.186Z,4.74
2023-02-22T13:59:44.143Z,3.51
2023-02-22T14:01:44.190Z,4.68
2023-02-22T14:03:44.104Z,3.49
2023-02-22T14:04:59.050Z,5.31
2023-02-22T14:05:44.176Z,4.65
2023-02-22T14:06:44.073Z,3.72
2023-02-22T14:07:44.064Z,3.91
2023-02-22T14:08:44.065Z,3.83
2023-02-22T14:09:44.050Z,3.79
2023-02-22T14:10:44.520Z,3.74
2023-02-22T14:11:44.030Z,3.95
2023-02-22T14:12:44.019Z,4.10
2023-02-22T14:13:44.013Z,4.34
2023-02-22T14:14:44.029Z,3.83
2023-02-22T14:15:44.074Z,4.65
2023-02-22T14:16:43.981Z,3.59
2023-02-22T14:17:43.975Z,3.78
2023-02-22T14:18:43.963Z,3.92
2023-02-22T14:19:44.138Z,3.69
2023-02-22T14:20:43.951Z,3.98
2023-02-22T14:21:44.045Z,3.56
2023-02-22T14:22:46.243Z,3.68
2023-02-22T14:23:43.920Z,4.21
2023-02-22T14:24:43.907Z,4.15
2023-02-22T14:25:43.901Z,3.56
2023-02-22T14:26:44.182Z,4.10
2023-02-22T14:27:43.880Z,3.82
2023-02-22T14:28:43.871Z,4.09
2023-02-22T14:29:43.855Z,3.69
2023-02-22T14:32:44.735Z,3.28
2023-02-22T14:33:44.289Z,3.06
2023-02-22T14:34:43.811Z,3.93
2023-02-22T14:35:49.880Z,3.72
2023-02-22T14:36:43.797Z,3.98
2023-02-22T14:37:43.785Z,3.67
2023-02-22T14:38:43.775Z,3.53
2023-02-22T14:40:43.755Z,3.69
2023-02-22T14:41:43.749Z,3.40
2023-02-22T14:42:43.878Z,3.75
2023-02-22T14:43:44.033Z,3.46
2023-02-22T14:44:43.746Z,3.44
2023-02-22T14:45:43.773Z,3.03
2023-02-22T14:46:44.564Z,3.28
2023-02-22T14:47:43.909Z,3.83
2023-02-22T14:48:43.675Z,3.69
2023-02-22T14:49:43.696Z,2.97
2023-02-22T14:50:43.658Z,3.64
2023-02-22T14:51:44.033Z,3.94
2023-02-22T14:52:43.639Z,3.15
2023-02-22T14:53:43.656Z,3.10
2023-02-22T14:54:43.615Z,3.31
2023-02-22T14:55:43.729Z,3.31
2023-02-22T14:56:43.596Z,3.15
2023-02-22T14:57:43.591Z,3.02
2023-02-22T14:58:43.582Z,2.66
2023-02-22T14:59:43.581Z,3.44
2023-02-22T15:00:43.564Z,3.27
2023-02-22T15:01:53.195Z,3.13
2023-02-22T15:02:43.615Z,3.47
2023-02-22T15:03:45.466Z,3.11
2023-02-22T15:04:43.551Z,2.86
2023-02-22T15:05:43.521Z,3.51
2023-02-22T15:06:43.502Z,3.55
2023-02-22T15:07:43.499Z,2.88
2023-02-22T15:08:43.486Z,3.16
2023-02-22T15:09:44.038Z,3.07
2023-02-22T15:10:43.503Z,3.27
2023-02-22T15:11:43.489Z,3.25
2023-02-22T15:12:43.450Z,2.89
2023-02-22T15:13:43.447Z,3.03
2023-02-22T15:14:43.433Z,3.21
2023-02-22T15:15:43.429Z,3.54
2023-02-22T15:16:43.415Z,2.83
2023-02-22T15:17:43.402Z,2.94
2023-02-22T15:18:43.450Z,3.35
2023-02-22T15:19:43.384Z,3.51
2023-02-22T15:20:43.382Z,2.97
2023-02-22T15:21:43.544Z,2.97
2023-02-22T15:22:43.365Z,3.04
2023-02-22T15:23:43.366Z,3.19
2023-02-22T15:24:43.341Z,2.92
2023-02-22T15:27:00.135Z,3.03
2023-02-22T15:27:43.308Z,3.12
2023-02-22T15:29:43.289Z,2.33
2023-02-22T15:30:43.340Z,3.59
2023-02-22T15:31:45.722Z,2.96
2023-02-22T15:33:01.233Z,2.97
2023-02-22T15:33:43.255Z,2.85
2023-02-22T15:34:43.288Z,3.12
2023-02-22T15:35:43.254Z,2.86
2023-02-22T15:36:43.554Z,3.45
2023-02-22T15:37:43.216Z,3.29
2023-02-22T15:38:43.553Z,3.14
2023-02-22T15:39:43.208Z,2.78
2023-02-22T15:40:43.461Z,2.45
2023-02-22T15:41:43.901Z,3.18
2023-02-22T15:42:43.170Z,3.73
2023-02-22T15:43:43.159Z,3.17
2023-02-22T15:44:43.156Z,3.01
2023-02-22T15:45:43.552Z,2.82
2023-02-22T15:46:43.132Z,2.97
2023-02-22T15:47:43.121Z,2.97
2023-02-22T15:49:43.104Z,3.12
2023-02-22T15:50:43.122Z,2.71
2023-02-22T15:51:43.088Z,2.84
2023-02-22T15:52:43.079Z,2.50
2023-02-22T15:53:43.066Z,2.83
2023-02-22T15:54:43.062Z,3.15
2023-02-22T15:55:43.062Z,2.75
2023-02-22T15:56:43.560Z,2.74
2023-02-22T15:57:43.032Z,2.93
2023-02-22T15:58:43.023Z,3.14
2023-02-22T15:59:43.014Z,3.38
2023-02-22T16:00:43.569Z,2.86
2023-02-22T16:01:43.206Z,2.89
2023-02-22T16:03:42.974Z,2.83
2023-02-22T16:04:51.282Z,2.62
2023-02-22T16:05:42.952Z,2.80
2023-02-22T16:06:42.971Z,2.89
2023-02-22T16:07:42.931Z,3.00
2023-02-22T16:08:54.421Z,2.77
2023-02-22T16:09:42.923Z,2.94
2023-02-22T16:10:42.913Z,2.21
2023-02-22T16:11:42.899Z,2.63
2023-02-22T16:12:42.950Z,3.44
2023-02-22T16:13:43.073Z,2.47
2023-02-22T16:14:42.958Z,2.81
2023-02-22T16:15:42.865Z,2.62
2023-02-22T16:16:42.911Z,2.96
2023-02-22T16:17:52.625Z,2.44
2023-02-22T16:18:42.839Z,2.86
2023-02-22T16:19:42.960Z,3.24
2023-02-22T16:20:43.074Z,2.69
2023-02-22T16:21:42.804Z,2.91
2023-02-22T16:22:42.900Z,2.50
2023-02-22T16:23:42.783Z,2.56
2023-02-22T16:24:43.082Z,2.22
2023-02-22T16:25:42.768Z,2.89
2023-02-22T16:26:42.757Z,2.48
2023-02-22T16:27:42.741Z,2.96
2023-02-22T16:28:42.733Z,2.74
2023-02-22T16:29:42.735Z,3.18
2023-02-22T16:30:43.682Z,2.66
2023-02-22T16:31:42.844Z,3.22
2023-02-22T16:32:42.858Z,3.04
2023-02-22T16:33:44.469Z,2.30
2023-02-22T16:34:42.704Z,2.89
2023-02-22T16:35:42.668Z,2.35
2023-02-22T16:36:42.659Z,3.03
2023-02-22T16:37:42.645Z,2.89
2023-02-22T16:38:42.678Z,3.04
2023-02-22T16:39:42.629Z,2.71
2023-02-22T16:40:42.626Z,3.12
2023-02-22T16:41:42.608Z,2.79
2023-02-22T16:42:42.600Z,3.37
2023-02-22T16:43:42.644Z,2.89
2023-02-22T16:44:43.076Z,2.78
2023-02-22T16:45:42.762Z,2.35
2023-02-22T16:46:42.558Z,2.48
2023-02-22T16:47:42.553Z,2.96
2023-02-22T16:48:42.542Z,2.68
2023-02-22T16:49:42.533Z,2.95
2023-02-22T16:50:43.087Z,2.65
2023-02-22T16:51:43.076Z,2.67
2023-02-22T16:52:42.507Z,2.67
2023-02-22T16:53:42.502Z,3.23
2023-02-22T16:54:42.612Z,2.86
2023-02-22T16:55:42.497Z,2.59
2023-02-22T16:56:42.466Z,3.20
2023-02-22T16:57:42.523Z,2.80
2023-02-22T16:58:42.449Z,2.95
2023-02-22T16:59:42.437Z,2.63
2023-02-22T17:00:42.430Z,2.93
2023-02-22T17:01:45.206Z,2.85
2023-02-22T17:02:42.408Z,3.37
2023-02-22T17:03:42.405Z,2.55
2023-02-22T17:04:42.389Z,2.45
2023-02-22T17:05:43.133Z,3.04
2023-02-22T17:06:42.380Z,2.83
2023-02-22T17:07:42.379Z,2.72
2023-02-22T17:08:42.350Z,2.71
2023-02-22T17:09:42.355Z,2.47
2023-02-22T17:10:42.363Z,2.46
2023-02-22T17:11:42.322Z,2.41
2023-02-22T17:12:42.318Z,2.40
2023-02-22T17:13:42.308Z,2.86
2023-02-22T17:14:42.303Z,2.65
2023-02-22T17:15:42.318Z,3.18
2023-02-22T17:16:42.279Z,3.05
2023-02-22T17:17:42.267Z,3.14
2023-02-22T17:18:42.258Z,3.16
2023-02-22T17:19:42.258Z,3.02
2023-02-22T17:20:42.234Z,3.00
2023-02-22T17:21:42.237Z,2.66
2023-02-22T17:22:43.092Z,2.41
2023-02-22T17:23:42.218Z,2.97
2023-02-22T17:24:42.209Z,2.89
2023-02-22T17:25:42.195Z,2.70
2023-02-22T17:26:42.382Z,2.76
2023-02-22T17:27:42.173Z,3.20
2023-02-22T17:28:42.168Z,2.77
2023-02-22T17:29:42.199Z,2.91
2023-02-22T17:30:42.247Z,2.48
2023-02-22T17:31:42.134Z,2.90
2023-02-22T17:32:42.128Z,2.61
2023-02-22T17:33:42.612Z,2.94
2023-02-22T17:34:42.593Z,2.87
2023-02-22T17:35:42.144Z,3.00
2023-02-22T17:36:42.596Z,3.04
2023-02-22T17:37:42.086Z,2.42
2023-02-22T17:38:42.311Z,2.88
2023-02-22T17:39:42.057Z,2.87
2023-02-22T17:40:42.120Z,3.25
2023-02-22T17:41:42.047Z,2.73
2023-02-22T17:42:42.196Z,2.51
2023-02-22T17:43:42.102Z,3.06
2023-02-22T17:44:42.019Z,2.57
2023-02-22T17:45:42.014Z,2.70
2023-02-22T17:46:42.069Z,2.61
2023-02-22T17:47:41.986Z,2.80
2023-02-22T17:48:41.981Z,3.23
2023-02-22T17:49:41.971Z,2.35
2023-02-22T17:50:41.962Z,2.54
2023-02-22T17:51:41.948Z,3.22
2023-02-22T17:52:41.947Z,2.94
2023-02-22T17:53:41.932Z,3.49
2023-02-22T17:54:41.932Z,2.88
2023-02-22T17:55:41.915Z,2.56
2023-02-22T17:56:41.981Z,2.80
2023-02-22T17:57:41.894Z,2.66
2023-02-22T17:58:42.008Z,2.80
2023-02-22T17:59:41.879Z,2.80
2023-02-22T18:00:41.864Z,2.62
2023-02-22T18:01:41.889Z,3.12
2023-02-22T18:02:41.937Z,2.91
2023-02-22T18:03:41.832Z,2.86
2023-02-22T18:04:41.830Z,2.69
2023-02-22T18:05:41.816Z,2.67
2023-02-22T18:06:41.810Z,2.95
2023-02-22T18:07:41.799Z,2.94
2023-02-22T18:08:41.793Z,3.13
2023-02-22T18:09:41.854Z,2.83
2023-02-22T18:10:41.764Z,3.05
2023-02-22T18:11:41.756Z,3.18
2023-02-22T18:12:41.751Z,2.60
2023-02-22T18:13:41.741Z,2.45
2023-02-22T18:14:41.754Z,2.99
2023-02-22T18:15:41.744Z,3.11
2023-02-22T18:16:41.711Z,2.73
2023-02-22T18:17:41.703Z,3.02
2023-02-22T18:18:41.690Z,3.15
2023-02-22T18:19:41.683Z,3.15
2023-02-22T18:21:41.671Z,2.87
2023-02-22T18:22:41.656Z,3.08
2023-02-22T18:23:41.642Z,2.95
2023-02-22T18:24:41.639Z,2.94
2023-02-22T18:25:41.669Z,2.74
2023-02-22T18:26:41.686Z,2.96
2023-02-22T18:27:41.606Z,2.59
2023-02-22T18:28:41.598Z,3.55
2023-02-22T18:29:41.587Z,3.14
2023-02-22T18:30:41.666Z,2.75
2023-02-22T18:31:41.635Z,2.82
2023-02-22T18:32:41.562Z,3.14
2023-02-22T18:34:41.540Z,2.74
2023-02-22T18:35:41.529Z,3.31
2023-02-22T18:36:41.540Z,3.20
2023-02-22T18:37:41.509Z,3.02
2023-02-22T18:38:41.499Z,3.04
2023-02-22T18:39:41.492Z,2.63
2023-02-22T18:40:41.485Z,3.02
2023-02-22T18:41:41.481Z,2.70
2023-02-22T18:42:41.465Z,2.76
2023-02-22T18:43:41.458Z,3.20
2023-02-22T18:44:41.446Z,2.80
2023-02-22T18:45:41.439Z,2.82
2023-02-22T18:46:41.508Z,2.53
2023-02-22T18:47:41.436Z,2.98
2023-02-22T18:48:41.408Z,3.20
2023-02-22T18:49:41.402Z,3.36
2023-02-22T18:50:41.386Z,2.72
2023-02-22T18:51:41.380Z,3.03
2023-02-22T18:52:41.371Z,2.63
2023-02-22T18:53:41.366Z,2.97
2023-02-22T18:54:41.362Z,3.13
2023-02-22T18:55:41.344Z,3.19
2023-02-22T18:56:41.331Z,2.58
2023-02-22T18:57:41.323Z,2.92
2023-02-22T18:58:41.315Z,2.60
2023-02-22T18:59:41.313Z,2.88
2023-02-22T19:00:41.294Z,2.86
2023-02-22T19:01:41.344Z,3.24
2023-02-22T19:02:41.385Z,2.97
2023-02-22T19:03:41.275Z,2.96
2023-02-22T19:04:41.628Z,3.10
2023-02-22T19:05:41.250Z,2.95
2023-02-22T19:06:41.245Z,3.21
2023-02-22T19:07:41.234Z,2.64
2023-02-22T19:08:41.228Z,3.14
2023-02-22T19:09:41.212Z,2.87
2023-02-22T19:11:41.646Z,2.41
2023-02-22T19:12:41.195Z,3.43
2023-02-22T19:13:41.181Z,3.15
2023-02-22T19:14:41.175Z,2.83
2023-02-22T19:15:41.721Z,3.73
2023-02-22T19:16:41.157Z,2.87
2023-02-22T19:17:42.741Z,2.92
2023-02-22T19:18:41.411Z,2.98
2023-02-22T19:19:41.360Z,3.15
2023-02-22T19:21:40.346Z,3.13
2023-02-22T19:22:41.338Z,2.80
2023-02-22T19:23:56.133Z,3.26
2023-02-22T19:24:41.311Z,2.88
2023-02-22T19:25:41.312Z,2.88
2023-02-22T19:26:41.295Z,2.78
2023-02-22T19:27:41.287Z,2.72
2023-02-22T19:28:41.276Z,2.94
2023-02-22T19:29:41.267Z,2.75
2023-02-22T19:30:41.335Z,3.02
2023-02-22T19:31:42.027Z,2.45
2023-02-22T19:32:41.267Z,2.78
2023-02-22T19:33:41.225Z,3.01
2023-02-22T19:34:41.260Z,2.98
2023-02-22T19:35:41.210Z,2.94
2023-02-22T19:36:41.200Z,2.85
2023-02-22T19:37:41.190Z,2.84
2023-02-22T19:38:41.181Z,3.60
2023-02-22T19:39:41.182Z,3.06
2023-02-22T19:40:41.165Z,2.62
2023-02-22T19:41:41.151Z,3.04
2023-02-22T19:42:41.139Z,3.08
2023-02-22T19:43:41.136Z,3.44
2023-02-22T19:44:41.121Z,2.70
2023-02-22T19:45:41.175Z,2.91
2023-02-22T19:46:41.122Z,2.89
2023-02-22T19:47:41.102Z,3.02
2023-02-22T19:48:41.098Z,3.25
2023-02-22T19:49:41.095Z,3.00
2023-02-22T19:50:41.207Z,2.85
2023-02-22T19:51:41.054Z,2.53
2023-02-22T19:52:41.051Z,3.16
2023-02-22T19:53:41.041Z,3.41
2023-02-22T19:54:41.033Z,3.14
2023-02-22T19:55:41.027Z,2.85
2023-02-22T19:56:41.643Z,2.39
2023-02-22T19:57:41.003Z,2.88
2023-02-22T19:59:40.979Z,3.25
2023-02-22T20:00:40.984Z,3.08